sensor_id;sensor_type;location;lat;lon;timestamp;temperature;humidity
75471;HTU21D;64051;46.320;48.028;2023-04-03T00:01:43;8.51;71.45
75471;HTU21D;64051;46.320;48.028;2023-04-03T00:04:10;8.47;71.50
75471;HTU21D;64051;46.320;48.028;2023-04-03T00:06:36;8.43;71.55
75471;HTU21D;64051;46.320;48.028;2023-04-03T00:09:04;8.39;71.57
75471;HTU21D;64051;46.320;48.028;2023-04-03T00:11:30;8.35;71.58
75471;HTU21D;64051;46.320;48.028;2023-04-03T00:13:56;8.32;71.64
75471;HTU21D;64051;46.320;48.028;2023-04-03T00:16:22;8.28;71.71
75471;HTU21D;64051;46.320;48.028;2023-04-03T00:18:48;8.26;71.74
75471;HTU21D;64051;46.320;48.028;2023-04-03T00:21:14;8.23;71.78
75471;HTU21D;64051;46.320;48.028;2023-04-03T00:23:41;8.20;71.86
75471;HTU21D;64051;46.320;48.028;2023-04-03T00:26:07;8.18;71.89
75471;HTU21D;64051;46.320;48.028;2023-04-03T00:28:32;8.16;71.95
75471;HTU21D;64051;46.320;48.028;2023-04-03T00:30:58;8.13;71.96
75471;HTU21D;64051;46.320;48.028;2023-04-03T00:33:25;8.11;71.96
75471;HTU21D;64051;46.320;48.028;2023-04-03T00:35:51;8.06;72.00
75471;HTU21D;64051;46.320;48.028;2023-04-03T00:38:17;8.04;72.04
75471;HTU21D;64051;46.320;48.028;2023-04-03T00:40:46;8.02;72.09
75471;HTU21D;64051;46.320;48.028;2023-04-03T00:43:18;7.98;72.11
75471;HTU21D;64051;46.320;48.028;2023-04-03T00:45:47;7.94;72.16
75471;HTU21D;64051;46.320;48.028;2023-04-03T00:48:18;7.92;72.24
75471;HTU21D;64051;46.320;48.028;2023-04-03T00:50:45;7.89;72.26
75471;HTU21D;64051;46.320;48.028;2023-04-03T00:53:16;7.89;72.37
75471;HTU21D;64051;46.320;48.028;2023-04-03T00:55:43;7.87;72.41
75471;HTU21D;64051;46.320;48.028;2023-04-03T00:58:10;7.88;72.47
75471;HTU21D;64051;46.320;48.028;2023-04-03T01:00:40;7.88;72.53
75471;HTU21D;64051;46.320;48.028;2023-04-03T01:03:07;7.89;72.60
75471;HTU21D;64051;46.320;48.028;2023-04-03T01:05:35;7.89;72.64
75471;HTU21D;64051;46.320;48.028;2023-04-03T01:08:01;7.92;72.73
75471;HTU21D;64051;46.320;48.028;2023-04-03T01:10:27;7.93;72.78
75471;HTU21D;64051;46.320;48.028;2023-04-03T01:12:54;7.94;72.80
75471;HTU21D;64051;46.320;48.028;2023-04-03T01:15:25;7.99;72.88
75471;HTU21D;64051;46.320;48.028;2023-04-03T01:17:57;8.00;72.89
75471;HTU21D;64051;46.320;48.028;2023-04-03T01:25:47;8.06;72.96
75471;HTU21D;64051;46.320;48.028;2023-04-03T01:28:21;8.11;73.00
75471;HTU21D;64051;46.320;48.028;2023-04-03T01:31:10;8.09;73.37
75471;HTU21D;64051;46.320;48.028;2023-04-03T01:33:35;8.08;72.87
75471;HTU21D;64051;46.320;48.028;2023-04-03T01:36:01;8.09;72.90
75471;HTU21D;64051;46.320;48.028;2023-04-03T01:38:28;8.12;72.90
75471;HTU21D;64051;46.320;48.028;2023-04-03T01:40:54;8.14;72.93
75471;HTU21D;64051;46.320;48.028;2023-04-03T01:43:21;8.16;72.93
75471;HTU21D;64051;46.320;48.028;2023-04-03T01:45:46;8.18;72.94
75471;HTU21D;64051;46.320;48.028;2023-04-03T01:48:16;8.19;73.09
75471;HTU21D;64051;46.320;48.028;2023-04-03T01:50:42;8.21;73.04
75471;HTU21D;64051;46.320;48.028;2023-04-03T01:53:08;8.22;73.00
75471;HTU21D;64051;46.320;48.028;2023-04-03T01:55:34;8.26;73.02
75471;HTU21D;64051;46.320;48.028;2023-04-03T01:58:00;8.26;73.06
75471;HTU21D;64051;46.320;48.028;2023-04-03T02:00:26;8.28;73.06
75471;HTU21D;64051;46.320;48.028;2023-04-03T02:02:52;8.30;73.09
75471;HTU21D;64051;46.320;48.028;2023-04-03T02:05:18;8.32;73.13
75471;HTU21D;64051;46.320;48.028;2023-04-03T02:07:45;8.34;73.12
75471;HTU21D;64051;46.320;48.028;2023-04-03T02:10:11;8.34;73.14
75471;HTU21D;64051;46.320;48.028;2023-04-03T02:12:37;8.37;73.17
75471;HTU21D;64051;46.320;48.028;2023-04-03T02:15:03;8.37;73.19
75471;HTU21D;64051;46.320;48.028;2023-04-03T02:17:29;8.39;73.25
75471;HTU21D;64051;46.320;48.028;2023-04-03T02:19:55;8.42;73.30
75471;HTU21D;64051;46.320;48.028;2023-04-03T02:22:22;8.43;73.29
75471;HTU21D;64051;46.320;48.028;2023-04-03T02:24:48;8.45;73.32
75471;HTU21D;64051;46.320;48.028;2023-04-03T02:27:14;8.45;73.32
75471;HTU21D;64051;46.320;48.028;2023-04-03T02:29:40;8.48;73.35
75471;HTU21D;64051;46.320;48.028;2023-04-03T02:32:06;8.47;73.35
75471;HTU21D;64051;46.320;48.028;2023-04-03T02:34:33;8.48;73.40
75471;HTU21D;64051;46.320;48.028;2023-04-03T02:37:00;8.49;73.45
75471;HTU21D;64051;46.320;48.028;2023-04-03T02:39:26;8.50;73.48
75471;HTU21D;64051;46.320;48.028;2023-04-03T02:41:54;8.50;73.48
75471;HTU21D;64051;46.320;48.028;2023-04-03T02:44:23;8.50;73.52
75471;HTU21D;64051;46.320;48.028;2023-04-03T02:46:49;8.50;73.56
75471;HTU21D;64051;46.320;48.028;2023-04-03T02:49:16;8.51;73.61
75471;HTU21D;64051;46.320;48.028;2023-04-03T02:51:42;8.52;73.67
75471;HTU21D;64051;46.320;48.028;2023-04-03T02:54:09;8.53;73.81
75471;HTU21D;64051;46.320;48.028;2023-04-03T02:56:38;8.53;73.92
75471;HTU21D;64051;46.320;48.028;2023-04-03T02:59:04;8.55;73.86
75471;HTU21D;64051;46.320;48.028;2023-04-03T03:01:32;8.57;73.77
75471;HTU21D;64051;46.320;48.028;2023-04-03T03:03:59;8.58;73.65
75471;HTU21D;64051;46.320;48.028;2023-04-03T03:06:26;8.59;73.68
75471;HTU21D;64051;46.320;48.028;2023-04-03T03:08:53;8.61;73.70
75471;HTU21D;64051;46.320;48.028;2023-04-03T03:11:20;8.63;73.71
75471;HTU21D;64051;46.320;48.028;2023-04-03T03:13:46;8.63;73.94
75471;HTU21D;64051;46.320;48.028;2023-04-03T03:16:12;8.65;74.03
75471;HTU21D;64051;46.320;48.028;2023-04-03T03:18:38;8.66;73.83
75471;HTU21D;64051;46.320;48.028;2023-04-03T03:21:04;8.70;73.86
75471;HTU21D;64051;46.320;48.028;2023-04-03T03:23:31;8.73;73.90
75471;HTU21D;64051;46.320;48.028;2023-04-03T03:26:00;8.77;73.90
75471;HTU21D;64051;46.320;48.028;2023-04-03T03:28:26;8.81;73.92
75471;HTU21D;64051;46.320;48.028;2023-04-03T03:30:52;8.87;73.93
75471;HTU21D;64051;46.320;48.028;2023-04-03T03:33:19;8.93;73.97
75471;HTU21D;64051;46.320;48.028;2023-04-03T03:35:45;9.00;73.94
75471;HTU21D;64051;46.320;48.028;2023-04-03T03:38:11;9.07;74.02
75471;HTU21D;64051;46.320;48.028;2023-04-03T03:40:38;9.15;73.86
75471;HTU21D;64051;46.320;48.028;2023-04-03T03:43:04;9.22;73.86
75471;HTU21D;64051;46.320;48.028;2023-04-03T03:45:31;9.31;73.90
75471;HTU21D;64051;46.320;48.028;2023-04-03T03:47:56;9.37;73.88
75471;HTU21D;64051;46.320;48.028;2023-04-03T03:50:23;9.46;73.83
75471;HTU21D;64051;46.320;48.028;2023-04-03T03:52:49;9.52;73.77
75471;HTU21D;64051;46.320;48.028;2023-04-03T03:55:16;9.59;73.76
75471;HTU21D;64051;46.320;48.028;2023-04-03T03:57:43;9.64;73.83
75471;HTU21D;64051;46.320;48.028;2023-04-03T04:00:10;9.72;73.78
75471;HTU21D;64051;46.320;48.028;2023-04-03T04:02:46;9.79;73.68
75471;HTU21D;64051;46.320;48.028;2023-04-03T04:05:19;9.86;73.67
75471;HTU21D;64051;46.320;48.028;2023-04-03T04:07:46;9.92;73.58
75471;HTU21D;64051;46.320;48.028;2023-04-03T04:10:12;9.99;73.61
75471;HTU21D;64051;46.320;48.028;2023-04-03T04:12:40;10.06;73.61
75471;HTU21D;64051;46.320;48.028;2023-04-03T04:15:06;10.15;73.55
75471;HTU21D;64051;46.320;48.028;2023-04-03T04:17:33;10.24;73.54
75471;HTU21D;64051;46.320;48.028;2023-04-03T04:20:03;10.34;73.48
75471;HTU21D;64051;46.320;48.028;2023-04-03T04:22:33;10.41;73.41
75471;HTU21D;64051;46.320;48.028;2023-04-03T04:24:58;10.48;73.23
75471;HTU21D;64051;46.320;48.028;2023-04-03T04:27:25;10.52;73.18
75471;HTU21D;64051;46.320;48.028;2023-04-03T04:29:51;10.57;73.15
75471;HTU21D;64051;46.320;48.028;2023-04-03T04:32:17;10.65;73.15
75471;HTU21D;64051;46.320;48.028;2023-04-03T04:34:44;10.73;73.20
75471;HTU21D;64051;46.320;48.028;2023-04-03T04:37:10;10.79;73.07
75471;HTU21D;64051;46.320;48.028;2023-04-03T04:39:36;10.84;72.97
75471;HTU21D;64051;46.320;48.028;2023-04-03T04:42:03;10.89;72.99
75471;HTU21D;64051;46.320;48.028;2023-04-03T04:44:32;10.93;72.74
75471;HTU21D;64051;46.320;48.028;2023-04-03T04:47:01;10.96;72.67
75471;HTU21D;64051;46.320;48.028;2023-04-03T04:49:27;11.00;72.66
75471;HTU21D;64051;46.320;48.028;2023-04-03T04:51:55;11.08;72.68
75471;HTU21D;64051;46.320;48.028;2023-04-03T04:54:27;11.15;72.57
75471;HTU21D;64051;46.320;48.028;2023-04-03T04:56:53;11.18;72.51
75471;HTU21D;64051;46.320;48.028;2023-04-03T04:59:19;11.20;72.49
75471;HTU21D;64051;46.320;48.028;2023-04-03T05:01:48;11.25;72.37
75471;HTU21D;64051;46.320;48.028;2023-04-03T05:04:16;11.27;72.29
75471;HTU21D;64051;46.320;48.028;2023-04-03T05:06:45;11.30;72.27
75471;HTU21D;64051;46.320;48.028;2023-04-03T05:09:16;11.34;72.32
75471;HTU21D;64051;46.320;48.028;2023-04-03T05:11:43;11.41;72.20
75471;HTU21D;64051;46.320;48.028;2023-04-03T05:14:10;11.48;72.06
75471;HTU21D;64051;46.320;48.028;2023-04-03T05:16:36;11.56;72.00
75471;HTU21D;64051;46.320;48.028;2023-04-03T05:19:02;11.70;71.95
75471;HTU21D;64051;46.320;48.028;2023-04-03T05:21:30;11.85;71.87
75471;HTU21D;64051;46.320;48.028;2023-04-03T05:24:00;11.98;71.71
75471;HTU21D;64051;46.320;48.028;2023-04-03T05:26:32;12.11;71.46
75471;HTU21D;64051;46.320;48.028;2023-04-03T05:28:59;12.18;71.19
75471;HTU21D;64051;46.320;48.028;2023-04-03T05:31:25;12.22;70.93
75471;HTU21D;64051;46.320;48.028;2023-04-03T05:33:51;12.23;70.76
75471;HTU21D;64051;46.320;48.028;2023-04-03T05:36:18;12.23;70.76
75471;HTU21D;64051;46.320;48.028;2023-04-03T05:38:48;12.27;70.72
75471;HTU21D;64051;46.320;48.028;2023-04-03T05:41:14;12.32;70.68
75471;HTU21D;64051;46.320;48.028;2023-04-03T05:43:46;12.38;70.61
75471;HTU21D;64051;46.320;48.028;2023-04-03T05:46:15;12.47;70.55
75471;HTU21D;64051;46.320;48.028;2023-04-03T05:48:47;12.55;70.45
75471;HTU21D;64051;46.320;48.028;2023-04-03T05:51:24;12.64;70.16
75471;HTU21D;64051;46.320;48.028;2023-04-03T05:54:13;12.66;69.75
75471;HTU21D;64051;46.320;48.028;2023-04-03T05:56:45;12.69;69.73
75471;HTU21D;64051;46.320;48.028;2023-04-03T05:59:11;12.71;69.67
75471;HTU21D;64051;46.320;48.028;2023-04-03T06:01:38;12.77;69.53
75471;HTU21D;64051;46.320;48.028;2023-04-03T06:04:10;12.84;69.26
75471;HTU21D;64051;46.320;48.028;2023-04-03T06:06:53;12.92;69.20
75471;HTU21D;64051;46.320;48.028;2023-04-03T06:09:25;13.02;69.03
75471;HTU21D;64051;46.320;48.028;2023-04-03T06:11:52;13.08;68.81
75471;HTU21D;64051;46.320;48.028;2023-04-03T06:14:20;13.10;68.39
75471;HTU21D;64051;46.320;48.028;2023-04-03T06:16:49;13.04;68.06
75471;HTU21D;64051;46.320;48.028;2023-04-03T06:19:22;13.00;68.09
75471;HTU21D;64051;46.320;48.028;2023-04-03T06:21:51;12.99;68.16
75471;HTU21D;64051;46.320;48.028;2023-04-03T06:24:18;13.03;68.19
75471;HTU21D;64051;46.320;48.028;2023-04-03T06:26:47;13.11;68.14
75471;HTU21D;64051;46.320;48.028;2023-04-03T06:29:14;13.20;68.08
75471;HTU21D;64051;46.320;48.028;2023-04-03T06:31:43;13.29;67.91
75471;HTU21D;64051;46.320;48.028;2023-04-03T06:34:09;13.33;67.73
75471;HTU21D;64051;46.320;48.028;2023-04-03T06:36:39;13.39;67.71
75471;HTU21D;64051;46.320;48.028;2023-04-03T06:39:05;13.45;67.73
75471;HTU21D;64051;46.320;48.028;2023-04-03T06:41:32;13.52;67.69
75471;HTU21D;64051;46.320;48.028;2023-04-03T06:43:58;13.63;67.68
75471;HTU21D;64051;46.320;48.028;2023-04-03T06:46:26;13.77;67.55
75471;HTU21D;64051;46.320;48.028;2023-04-03T06:48:52;13.90;67.36
75471;HTU21D;64051;46.320;48.028;2023-04-03T06:51:24;14.05;67.14
75471;HTU21D;64051;46.320;48.028;2023-04-03T06:53:52;14.14;66.79
75471;HTU21D;64051;46.320;48.028;2023-04-03T06:56:18;14.26;66.65
75471;HTU21D;64051;46.320;48.028;2023-04-03T06:58:45;14.41;66.65
75471;HTU21D;64051;46.320;48.028;2023-04-03T07:01:14;14.60;66.52
75471;HTU21D;64051;46.320;48.028;2023-04-03T07:03:43;14.78;66.20
75471;HTU21D;64051;46.320;48.028;2023-04-03T07:06:11;14.94;65.92
75471;HTU21D;64051;46.320;48.028;2023-04-03T07:08:38;15.07;65.66
75471;HTU21D;64051;46.320;48.028;2023-04-03T07:11:04;15.18;65.31
75471;HTU21D;64051;46.320;48.028;2023-04-03T07:13:30;15.28;65.05
75471;HTU21D;64051;46.320;48.028;2023-04-03T07:15:56;15.38;64.93
75471;HTU21D;64051;46.320;48.028;2023-04-03T07:18:23;15.46;64.70
75471;HTU21D;64051;46.320;48.028;2023-04-03T07:20:48;15.56;64.61
75471;HTU21D;64051;46.320;48.028;2023-04-03T07:23:14;15.68;64.29
75471;HTU21D;64051;46.320;48.028;2023-04-03T07:25:44;15.77;64.01
75471;HTU21D;64051;46.320;48.028;2023-04-03T07:28:11;15.86;63.98
75471;HTU21D;64051;46.320;48.028;2023-04-03T07:30:48;15.96;63.73
75471;HTU21D;64051;46.320;48.028;2023-04-03T07:33:22;16.06;63.60
75471;HTU21D;64051;46.320;48.028;2023-04-03T07:35:48;16.18;63.46
75471;HTU21D;64051;46.320;48.028;2023-04-03T07:38:14;16.31;63.04
75471;HTU21D;64051;46.320;48.028;2023-04-03T07:40:46;16.39;62.76
75471;HTU21D;64051;46.320;48.028;2023-04-03T07:43:12;16.43;62.59
75471;HTU21D;64051;46.320;48.028;2023-04-03T07:45:38;16.49;62.34
75471;HTU21D;64051;46.320;48.028;2023-04-03T07:48:04;16.51;62.17
75471;HTU21D;64051;46.320;48.028;2023-04-03T07:50:30;16.60;62.12
75471;HTU21D;64051;46.320;48.028;2023-04-03T07:52:56;16.69;61.86
75471;HTU21D;64051;46.320;48.028;2023-04-03T07:55:23;16.73;61.74
75471;HTU21D;64051;46.320;48.028;2023-04-03T07:57:49;16.87;61.73
75471;HTU21D;64051;46.320;48.028;2023-04-03T08:00:16;17.03;61.26
75471;HTU21D;64051;46.320;48.028;2023-04-03T08:02:44;17.10;60.87
75471;HTU21D;64051;46.320;48.028;2023-04-03T08:05:12;17.19;60.77
75471;HTU21D;64051;46.320;48.028;2023-04-03T08:07:38;17.34;60.71
75471;HTU21D;64051;46.320;48.028;2023-04-03T08:10:04;17.47;60.23
75471;HTU21D;64051;46.320;48.028;2023-04-03T08:12:30;17.48;59.85
75471;HTU21D;64051;46.320;48.028;2023-04-03T08:15:06;17.52;59.81
75471;HTU21D;64051;46.320;48.028;2023-04-03T08:17:36;17.63;59.59
75471;HTU21D;64051;46.320;48.028;2023-04-03T08:20:04;17.70;59.16
75471;HTU21D;64051;46.320;48.028;2023-04-03T08:22:30;17.79;58.98
75471;HTU21D;64051;46.320;48.028;2023-04-03T08:24:56;17.88;58.59
75471;HTU21D;64051;46.320;48.028;2023-04-03T08:27:22;17.93;58.25
75471;HTU21D;64051;46.320;48.028;2023-04-03T08:29:48;18.03;58.32
75471;HTU21D;64051;46.320;48.028;2023-04-03T08:32:14;18.15;58.32
75471;HTU21D;64051;46.320;48.028;2023-04-03T08:34:40;18.28;58.04
75471;HTU21D;64051;46.320;48.028;2023-04-03T08:37:07;18.38;57.80
75471;HTU21D;64051;46.320;48.028;2023-04-03T08:39:33;18.47;57.50
75471;HTU21D;64051;46.320;48.028;2023-04-03T08:42:04;18.53;56.45
75471;HTU21D;64051;46.320;48.028;2023-04-03T08:47:28;18.74;56.46
75471;HTU21D;64051;46.320;48.028;2023-04-03T08:50:02;18.81;56.23
75471;HTU21D;64051;46.320;48.028;2023-04-03T08:52:52;18.79;55.45
75471;HTU21D;64051;46.320;48.028;2023-04-03T08:55:40;18.78;55.34
75471;HTU21D;64051;46.320;48.028;2023-04-03T08:58:26;18.86;55.22
75471;HTU21D;64051;46.320;48.028;2023-04-03T09:01:13;18.92;55.29
75471;HTU21D;64051;46.320;48.028;2023-04-03T09:03:40;18.89;55.20
75471;HTU21D;64051;46.320;48.028;2023-04-03T09:06:21;18.88;53.52
75471;HTU21D;64051;46.320;48.028;2023-04-03T09:14:29;18.98;54.71
75471;HTU21D;64051;46.320;48.028;2023-04-03T09:16:59;19.03;54.50
75471;HTU21D;64051;46.320;48.028;2023-04-03T09:22:26;19.08;53.64
75471;HTU21D;64051;46.320;48.028;2023-04-03T09:25:15;19.11;53.27
75471;HTU21D;64051;46.320;48.028;2023-04-03T09:27:43;19.05;53.86
75471;HTU21D;64051;46.320;48.028;2023-04-03T09:30:21;19.01;51.98
75471;HTU21D;64051;46.320;48.028;2023-04-03T09:32:53;19.05;53.88
75471;HTU21D;64051;46.320;48.028;2023-04-03T09:35:28;19.00;53.49
75471;HTU21D;64051;46.320;48.028;2023-04-03T09:40:33;18.95;53.73
75471;HTU21D;64051;46.320;48.028;2023-04-03T09:43:20;18.98;53.47
75471;HTU21D;64051;46.320;48.028;2023-04-03T09:45:47;18.97;53.71
75471;HTU21D;64051;46.320;48.028;2023-04-03T09:50:58;18.95;53.20
75471;HTU21D;64051;46.320;48.028;2023-04-03T09:53:40;19.02;53.43
75471;HTU21D;64051;46.320;48.028;2023-04-03T09:59:07;18.96;52.81
75471;HTU21D;64051;46.320;48.028;2023-04-03T10:01:41;18.91;52.98
75471;HTU21D;64051;46.320;48.028;2023-04-03T10:04:18;18.99;53.21
75471;HTU21D;64051;46.320;48.028;2023-04-03T10:06:54;19.06;52.91
75471;HTU21D;64051;46.320;48.028;2023-04-03T10:09:31;19.15;51.63
75471;HTU21D;64051;46.320;48.028;2023-04-03T10:12:05;19.23;52.78
75471;HTU21D;64051;46.320;48.028;2023-04-03T10:14:39;19.36;52.61
75471;HTU21D;64051;46.320;48.028;2023-04-03T10:20:44;19.58;51.27
75471;HTU21D;64051;46.320;48.028;2023-04-03T10:23:26;19.65;51.71
75471;HTU21D;64051;46.320;48.028;2023-04-03T10:28:52;19.82;51.37
75471;HTU21D;64051;46.320;48.028;2023-04-03T10:34:08;19.98;50.60
75471;HTU21D;64051;46.320;48.028;2023-04-03T10:56:28;20.44;47.92
75471;HTU21D;64051;46.320;48.028;2023-04-03T11:01:37;20.54;49.42
75471;HTU21D;64051;46.320;48.028;2023-04-03T11:04:07;20.68;49.30
75471;HTU21D;64051;46.320;48.028;2023-04-03T11:06:50;20.66;48.68
75471;HTU21D;64051;46.320;48.028;2023-04-03T11:09:26;20.40;48.45
75471;HTU21D;64051;46.320;48.028;2023-04-03T11:12:02;20.15;48.38
75471;HTU21D;64051;46.320;48.028;2023-04-03T11:14:34;19.95;49.03
75471;HTU21D;64051;46.320;48.028;2023-04-03T11:23:04;19.94;48.99
75471;HTU21D;64051;46.320;48.028;2023-04-03T11:25:53;19.98;48.76
75471;HTU21D;64051;46.320;48.028;2023-04-03T11:35:25;19.65;49.24
75471;HTU21D;64051;46.320;48.028;2023-04-03T11:37:55;19.62;49.24
75471;HTU21D;64051;46.320;48.028;2023-04-03T11:40:33;19.65;48.89
75471;HTU21D;64051;46.320;48.028;2023-04-03T11:43:24;19.74;48.61
75471;HTU21D;64051;46.320;48.028;2023-04-03T11:46:02;19.83;48.73
75471;HTU21D;64051;46.320;48.028;2023-04-03T11:53:50;20.03;48.48
75471;HTU21D;64051;46.320;48.028;2023-04-03T11:56:28;20.07;48.12
75471;HTU21D;64051;46.320;48.028;2023-04-03T12:01:50;20.26;47.37
75471;HTU21D;64051;46.320;48.028;2023-04-03T12:04:18;20.34;48.28
75471;HTU21D;64051;46.320;48.028;2023-04-03T12:09:33;20.39;47.88
75471;HTU21D;64051;46.320;48.028;2023-04-03T12:12:01;20.39;48.20
75471;HTU21D;64051;46.320;48.028;2023-04-03T12:14:49;20.44;48.44
75471;HTU21D;64051;46.320;48.028;2023-04-03T12:17:22;20.50;48.05
75471;HTU21D;64051;46.320;48.028;2023-04-03T12:19:52;20.53;47.99
75471;HTU21D;64051;46.320;48.028;2023-04-03T12:22:21;20.48;47.78
75471;HTU21D;64051;46.320;48.028;2023-04-03T12:24:50;20.41;47.60
75471;HTU21D;64051;46.320;48.028;2023-04-03T12:27:37;20.34;47.64
75471;HTU21D;64051;46.320;48.028;2023-04-03T12:30:05;20.24;47.63
75471;HTU21D;64051;46.320;48.028;2023-04-03T12:33:02;20.16;46.94
75471;HTU21D;64051;46.320;48.028;2023-04-03T12:38:48;20.05;47.70
75471;HTU21D;64051;46.320;48.028;2023-04-03T12:41:46;20.01;47.60
75471;HTU21D;64051;46.320;48.028;2023-04-03T12:44:40;19.97;47.16
75471;HTU21D;64051;46.320;48.028;2023-04-03T12:47:32;19.90;47.12
75471;HTU21D;64051;46.320;48.028;2023-04-03T12:50:13;19.83;48.05
75471;HTU21D;64051;46.320;48.028;2023-04-03T12:52:59;19.74;47.57
75471;HTU21D;64051;46.320;48.028;2023-04-03T12:55:31;19.71;48.15
75471;HTU21D;64051;46.320;48.028;2023-04-03T12:58:21;19.71;46.94
75471;HTU21D;64051;46.320;48.028;2023-04-03T13:01:02;19.71;47.79
75471;HTU21D;64051;46.320;48.028;2023-04-03T13:03:30;19.71;48.16
75471;HTU21D;64051;46.320;48.028;2023-04-03T13:06:01;19.73;48.17
75471;HTU21D;64051;46.320;48.028;2023-04-03T13:08:33;19.71;47.90
75471;HTU21D;64051;46.320;48.028;2023-04-03T13:11:06;19.58;47.73
75471;HTU21D;64051;46.320;48.028;2023-04-03T13:16:36;19.30;48.22
75471;HTU21D;64051;46.320;48.028;2023-04-03T13:19:16;19.24;48.60
75471;HTU21D;64051;46.320;48.028;2023-04-03T13:21:49;19.23;48.70
75471;HTU21D;64051;46.320;48.028;2023-04-03T13:24:19;19.22;48.86
75471;HTU21D;64051;46.320;48.028;2023-04-03T13:26:51;19.18;48.73
75471;HTU21D;64051;46.320;48.028;2023-04-03T13:29:29;19.10;48.53
75471;HTU21D;64051;46.320;48.028;2023-04-03T13:31:57;18.99;48.90
75471;HTU21D;64051;46.320;48.028;2023-04-03T13:34:32;18.89;49.01
75471;HTU21D;64051;46.320;48.028;2023-04-03T13:37:11;18.81;49.25
75471;HTU21D;64051;46.320;48.028;2023-04-03T13:39:56;18.74;49.43
75471;HTU21D;64051;46.320;48.028;2023-04-03T13:42:26;18.68;49.52
75471;HTU21D;64051;46.320;48.028;2023-04-03T13:45:22;18.58;49.25
75471;HTU21D;64051;46.320;48.028;2023-04-03T13:48:09;18.41;49.39
75471;HTU21D;64051;46.320;48.028;2023-04-03T13:51:16;18.20;49.54
75471;HTU21D;64051;46.320;48.028;2023-04-03T13:53:54;17.98;50.01
75471;HTU21D;64051;46.320;48.028;2023-04-03T13:56:31;17.82;50.29
75471;HTU21D;64051;46.320;48.028;2023-04-03T13:59:31;17.67;50.38
75471;HTU21D;64051;46.320;48.028;2023-04-03T14:07:16;17.18;51.05
75471;HTU21D;64051;46.320;48.028;2023-04-03T14:09:47;16.98;51.21
75471;HTU21D;64051;46.320;48.028;2023-04-03T14:12:36;16.79;51.76
75471;HTU21D;64051;46.320;48.028;2023-04-03T14:15:18;16.60;51.75
75471;HTU21D;64051;46.320;48.028;2023-04-03T14:17:50;16.43;51.89
75471;HTU21D;64051;46.320;48.028;2023-04-03T14:20:26;16.27;52.17
75471;HTU21D;64051;46.320;48.028;2023-04-03T14:22:55;16.13;52.40
75471;HTU21D;64051;46.320;48.028;2023-04-03T14:25:25;15.97;52.57
75471;HTU21D;64051;46.320;48.028;2023-04-03T14:27:56;15.86;52.84
75471;HTU21D;64051;46.320;48.028;2023-04-03T14:30:29;15.73;52.91
75471;HTU21D;64051;46.320;48.028;2023-04-03T14:32:58;15.60;53.06
75471;HTU21D;64051;46.320;48.028;2023-04-03T14:35:25;15.48;53.21
75471;HTU21D;64051;46.320;48.028;2023-04-03T14:37:56;15.36;53.39
75471;HTU21D;64051;46.320;48.028;2023-04-03T14:40:26;15.25;53.54
75471;HTU21D;64051;46.320;48.028;2023-04-03T14:43:01;15.11;53.75
75471;HTU21D;64051;46.320;48.028;2023-04-03T14:45:39;14.99;54.07
75471;HTU21D;64051;46.320;48.028;2023-04-03T14:48:20;14.88;54.16
75471;HTU21D;64051;46.320;48.028;2023-04-03T14:51:04;14.73;54.51
75471;HTU21D;64051;46.320;48.028;2023-04-03T14:53:44;14.60;54.55
75471;HTU21D;64051;46.320;48.028;2023-04-03T14:56:16;14.51;54.73
75471;HTU21D;64051;46.320;48.028;2023-04-03T14:58:49;14.41;54.88
75471;HTU21D;64051;46.320;48.028;2023-04-03T15:01:22;14.28;55.22
75471;HTU21D;64051;46.320;48.028;2023-04-03T15:03:56;14.18;55.39
75471;HTU21D;64051;46.320;48.028;2023-04-03T15:06:25;14.07;55.48
75471;HTU21D;64051;46.320;48.028;2023-04-03T15:08:52;13.94;55.62
75471;HTU21D;64051;46.320;48.028;2023-04-03T15:11:25;13.84;56.00
75471;HTU21D;64051;46.320;48.028;2023-04-03T15:14:09;13.71;56.25
75471;HTU21D;64051;46.320;48.028;2023-04-03T15:16:46;13.59;56.20
75471;HTU21D;64051;46.320;48.028;2023-04-03T15:19:14;13.48;56.52
75471;HTU21D;64051;46.320;48.028;2023-04-03T15:21:43;13.36;56.79
75471;HTU21D;64051;46.320;48.028;2023-04-03T15:24:10;13.25;57.00
75471;HTU21D;64051;46.320;48.028;2023-04-03T15:26:37;13.15;57.24
75471;HTU21D;64051;46.320;48.028;2023-04-03T15:29:04;13.07;57.36
75471;HTU21D;64051;46.320;48.028;2023-04-03T15:31:34;12.97;57.56
75471;HTU21D;64051;46.320;48.028;2023-04-03T15:34:07;12.87;57.87
75471;HTU21D;64051;46.320;48.028;2023-04-03T15:36:33;12.77;57.88
75471;HTU21D;64051;46.320;48.028;2023-04-03T15:39:14;12.69;58.34
75471;HTU21D;64051;46.320;48.028;2023-04-03T15:41:45;12.59;58.34
75471;HTU21D;64051;46.320;48.028;2023-04-03T15:44:13;12.48;58.44
75471;HTU21D;64051;46.320;48.028;2023-04-03T15:46:39;12.40;58.64
75471;HTU21D;64051;46.320;48.028;2023-04-03T15:49:12;12.32;58.79
75471;HTU21D;64051;46.320;48.028;2023-04-03T15:51:45;12.26;59.05
75471;HTU21D;64051;46.320;48.028;2023-04-03T15:54:27;12.16;59.64
75471;HTU21D;64051;46.320;48.028;2023-04-03T15:56:56;12.06;59.34
75471;HTU21D;64051;46.320;48.028;2023-04-03T15:59:28;11.98;59.54
75471;HTU21D;64051;46.320;48.028;2023-04-03T16:01:58;11.90;59.82
75471;HTU21D;64051;46.320;48.028;2023-04-03T16:04:31;11.85;60.01
75471;HTU21D;64051;46.320;48.028;2023-04-03T16:07:05;11.78;60.22
75471;HTU21D;64051;46.320;48.028;2023-04-03T16:09:40;11.72;60.33
75471;HTU21D;64051;46.320;48.028;2023-04-03T16:12:06;11.67;60.49
75471;HTU21D;64051;46.320;48.028;2023-04-03T16:14:32;11.60;60.57
75471;HTU21D;64051;46.320;48.028;2023-04-03T16:17:02;11.55;60.75
75471;HTU21D;64051;46.320;48.028;2023-04-03T16:19:34;11.48;60.90
75471;HTU21D;64051;46.320;48.028;2023-04-03T16:22:00;11.43;60.93
75471;HTU21D;64051;46.320;48.028;2023-04-03T16:24:29;11.38;61.16
75471;HTU21D;64051;46.320;48.028;2023-04-03T16:27:01;11.30;61.33
75471;HTU21D;64051;46.320;48.028;2023-04-03T16:29:35;11.26;61.50
75471;HTU21D;64051;46.320;48.028;2023-04-03T16:32:19;11.16;62.80
75471;HTU21D;64051;46.320;48.028;2023-04-03T16:34:52;11.08;61.59
75471;HTU21D;64051;46.320;48.028;2023-04-03T16:37:18;10.99;61.65
75471;HTU21D;64051;46.320;48.028;2023-04-03T16:39:47;10.93;61.79
75471;HTU21D;64051;46.320;48.028;2023-04-03T16:45:32;10.79;62.27
75471;HTU21D;64051;46.320;48.028;2023-04-03T16:48:03;10.73;62.28
75471;HTU21D;64051;46.320;48.028;2023-04-03T16:50:41;10.69;62.66
75471;HTU21D;64051;46.320;48.028;2023-04-03T16:53:15;10.63;62.72
75471;HTU21D;64051;46.320;48.028;2023-04-03T16:55:51;10.58;62.94
75471;HTU21D;64051;46.320;48.028;2023-04-03T17:02:51;10.43;63.69
75471;HTU21D;64051;46.320;48.028;2023-04-03T17:05:23;10.37;63.19
75471;HTU21D;64051;46.320;48.028;2023-04-03T17:07:53;10.30;63.43